Portsmouth International at Pease Airport Portsmouth US
ICAO: KPSM
IATA: PSM
Category: Medium
Scheduled Services: Yes

Elevation: 100 ft
TransAlt. 18000 ft.

Airport Communications:
BOSTON APP:125.05
ATIS:132.05
CLNC DEL:33.58
DEP:125.05
GCA:127.05
GND:120.95
ARW ANG OPS:134.1
TWR:128.4
UNICOM:122.95

KPSM Zoom In..

Runways:

(A) RW 16 length 11321 ft width 150 ft
ILS 110.10 / hdg 165

(B) RW 34 length 11321 ft width 150 ft
ILS 110.10 / hdg 345

Location; KPSM
Day. 31 / Time. 11.56 Zulu
* Altimeter: 29.94
* Temperature: 14° c. 57.2°f.
* Wind from: 300° Speed 17 kn with Gusts up to 20 kn.
Dewpoint: 04° c.
Visibility: 10 Statute Miles.
Clouds: Few 4000 ft.

KPSM 311156Z 30017G20KT 10SM FEW040 14/04 A2994 RMK AO2A SLP141 T01430040 10183 20137 52033


Wind From 300°
Speed 17 kn.

 
 
jpsmedia worldairports.se 2020   terms of use